Thunderstorms From: 25-05-2018 15:00 Until: 26-05-2018 15:00 warning for: Thunderstorms Level: Yellow info button

Although rather usual in this region, locally or potentially dangerous phenomena are expected. (such as local winds, summer thunderstorms, rising streams or high waves) Be aware and pay attention to the latest weather updates, especially if you carry out activities exposed to weather or close to a stream or shoreline. 


Meteo18 Weather Cam more information Meteo18 Weather Cam


warning for Thunderstorms more information blitzortung!


Rain radar more information rain snow radar


Visit our other weather sites:

Template documentation
and downloads

And another site



Weather Underground History page Text

Daily Summary for January 28, 2016 Units:  Metric    English   Both
« Previous Day
Next Day »
Daily Weekly Monthly Yearly Custom
  High: Low: Average:
Temperature: -17.8 °C -14.2 °C -13.3 °C
Dew Point: -17.8 °C -14.6 °C -13.8 °C
Humidity: Humidity % 87 % 94 %
Wind Speed: 0 km/h 0 km/h 2.1 km/h
Wind Gust: 0 km/h - -
Wind:- - ESE
Pressure: 0 hPa 34601.5 hPa -
Precipitation: 83.82 mm    
Historical Graphs
 
 
Tabular Data for January 28, 2016
Time Temperature Dew Point Pressure Wind Wind Speed Wind Gust Humidity Rainfall Rate (Hourly)
-17.8 °C -17.8 °C 0 hPa Calm     Humidity % 0 mm
00:02 -12.7 °C -13.7 °C 34601.5 hPa SW 2.6 km/h 10.3 km/h 89 % 0 mm
00:12 -12.8 °C -13.8 °C 34601.5 hPa Calm   7.7 km/h 89 % 0 mm
00:17 -12.9 °C -13.8 °C 34611.7 hPa Calm   7.7 km/h 90 % 0 mm
00:22 -13.1 °C -13.8 °C 34611.7 hPa Calm   7.7 km/h 91 % 0 mm
00:32 -12.9 °C -13.8 °C 34611.7 hPa SW 2.6 km/h 7.7 km/h 90 % 0 mm
00:37 -12.9 °C -13.9 °C 34611.7 hPa WSW 2.6 km/h 7.7 km/h 89 % 0 mm
00:42 -12.9 °C -13.8 °C 34611.7 hPa SW 5.1 km/h 12.9 km/h 90 % 0 mm
00:52 -12.6 °C -13.6 °C 34611.7 hPa WSW 2.6 km/h 12.9 km/h 89 % 0 mm
00:57 -12.6 °C -13.6 °C 34611.7 hPa WSW 2.6 km/h 12.9 km/h 88 % 0 mm
01:02 -12.7 °C -13.7 °C 34611.7 hPa SSW 2.6 km/h 12.9 km/h 89 % 0 mm
01:07 -12.9 °C -13.8 °C 34611.7 hPa SSW 2.6 km/h 10.3 km/h 90 % 0 mm
01:12 -12.9 °C -13.8 °C 34611.7 hPa SW 2.6 km/h 10.3 km/h 90 % 0 mm
01:17 -13 °C -13.8 °C 34611.7 hPa Calm   5.1 km/h 91 % 0 mm
01:22 -13 °C -13.8 °C 34611.7 hPa WSW 2.6 km/h 5.1 km/h 91 % 0 mm
01:27 -13 °C -13.7 °C 34625.2 hPa SW 2.6 km/h 5.1 km/h 92 % 0 mm
01:32 -13 °C -13.7 °C 34611.7 hPa Calm   5.1 km/h 92 % 0 mm
01:37 -13 °C -13.7 °C 34611.7 hPa Calm   5.1 km/h 92 % 0 mm
01:42 -12.9 °C -13.6 °C 34611.7 hPa Calm   5.1 km/h 92 % 0 mm
01:47 -12.9 °C -13.6 °C 34625.2 hPa Calm   5.1 km/h 92 % 0 mm
01:52 -12.8 °C -13.6 °C 34625.2 hPa SW 10.3 km/h 10.3 km/h 91 % 0 mm
01:57 -12.6 °C -13.5 °C 34625.2 hPa WSW 5.1 km/h 12.9 km/h 90 % 0 mm
02:02 -12.4 °C -13.4 °C 34611.7 hPa SSW 7.7 km/h 12.9 km/h 88 % 0 mm
02:07 -12.3 °C -13.3 °C 34611.7 hPa SW 2.6 km/h 12.9 km/h 88 % 0 mm
02:12 -12.3 °C -13.4 °C 34625.2 hPa SSW 5.1 km/h 15.6 km/h 87 % 0 mm
02:17 -12.2 °C -13.4 °C 34625.2 hPa South 2.6 km/h 15.6 km/h 87 % 0 mm
02:22 -12.2 °C -13.4 °C 34625.2 hPa SW 2.6 km/h 15.6 km/h 87 % 0 mm
02:27 -12.3 °C -13.3 °C 34625.2 hPa West 2.6 km/h 10.3 km/h 88 % 0 mm
02:32 -12.3 °C -13.3 °C 34625.2 hPa Calm   10.3 km/h 88 % 0 mm
02:37 -12.3 °C -13.3 °C 34625.2 hPa SW 5.1 km/h 12.9 km/h 88 % 0 mm
02:42 -12.3 °C -13.4 °C 34635.4 hPa WSW 5.1 km/h 12.9 km/h 87 % 0 mm
02:52 -12.2 °C -13.3 °C 34625.2 hPa SW 5.1 km/h 15.6 km/h 87 % 0 mm
02:57 -12.2 °C -13.3 °C 34635.4 hPa WSW 7.7 km/h 15.6 km/h 87 % 0 mm
03:02 -12.2 °C -13.3 °C 34635.4 hPa WSW 2.6 km/h 15.6 km/h 87 % 0 mm
03:07 -12.3 °C -13.4 °C 34635.4 hPa Calm   20.8 km/h 87 % 0 mm
03:12 -12.4 °C -13.5 °C 34635.4 hPa Calm   20.8 km/h 88 % 0 mm
03:17 -12.7 °C -13.6 °C 34635.4 hPa Calm   10.3 km/h 90 % 0 mm
03:22 -12.7 °C -13.5 °C 34635.4 hPa Calm   10.3 km/h 91 % 0 mm
03:27 -12.8 °C -13.6 °C 34635.4 hPa Calm   5.1 km/h 91 % 0 mm
03:32 -12.9 °C -13.6 °C 34635.4 hPa SW 2.6 km/h 5.1 km/h 92 % 0 mm
03:37 -12.9 °C -13.6 °C 34635.4 hPa WSW 2.6 km/h 7.7 km/h 92 % 0 mm
03:42 -12.8 °C -13.5 °C 34635.4 hPa Calm   7.7 km/h 92 % 0 mm
03:47 -12.6 °C -13.4 °C 34635.4 hPa SW 10.3 km/h 10.3 km/h 91 % 0 mm
03:52 -12.4 °C -13.3 °C 34635.4 hPa SW 5.1 km/h 7.7 km/h 89 % 0 mm
03:57 -12.4 °C -13.3 °C 34635.4 hPa Calm   12.9 km/h 89 % 0 mm
04:02 -12.4 °C -13.3 °C 34645.6 hPa Calm   12.9 km/h 89 % 0 mm
04:12 -12.4 °C -13.4 °C 34645.6 hPa Calm   5.1 km/h 89 % 0 mm
04:17 -12.5 °C -13.4 °C 34645.6 hPa Calm   2.6 km/h 90 % 0 mm
04:22 -12.6 °C -13.5 °C 34645.6 hPa Calm   2.6 km/h 90 % 0 mm
04:27 -12.7 °C -13.4 °C 34645.6 hPa Calm   2.6 km/h 91 % 0 mm
04:32 -12.7 °C -13.4 °C 34645.6 hPa Calm   2.6 km/h 91 % 0 mm
04:37 -12.6 °C -13.5 °C 34645.6 hPa SW 2.6 km/h 10.3 km/h 90 % 0 mm
04:42 -12.7 °C -13.6 °C 34645.6 hPa Calm   10.3 km/h 90 % 0 mm
04:47 -12.8 °C -13.7 °C 34645.6 hPa Calm   10.3 km/h 90 % 0 mm
04:52 -12.9 °C -13.7 °C 34645.6 hPa Calm   10.3 km/h 91 % 0 mm
04:57 -12.9 °C -13.6 °C 34645.6 hPa Calm   2.6 km/h 92 % 0 mm
05:02 -13 °C -13.7 °C 34645.6 hPa Calm   2.6 km/h 92 % 0 mm
05:07 -13 °C -13.6 °C 34645.6 hPa Calm   2.6 km/h 93 % 0 mm
05:12 -13 °C -13.6 °C 34645.6 hPa Calm   2.6 km/h 93 % 0 mm
05:17 -13.1 °C -13.7 °C 34645.6 hPa Calm   2.6 km/h 93 % 0 mm
05:22 -13.1 °C -13.7 °C 34659.1 hPa Calm   2.6 km/h 93 % 0 mm
05:32 -13.1 °C -13.7 °C 34659.1 hPa Calm     93 % 0 mm
05:42 -12.9 °C -13.6 °C 34659.1 hPa Calm     93 % 0 mm
05:52 -12.7 °C -13.4 °C 34659.1 hPa Calm   2.6 km/h 91 % 0 mm
05:57 -12.6 °C -13.5 °C 34669.3 hPa Calm   5.1 km/h 90 % 0 mm
06:02 -12.6 °C -13.5 °C 34669.3 hPa WSW 2.6 km/h 5.1 km/h 90 % 0 mm
06:12 -12.6 °C -13.6 °C 34669.3 hPa Calm   5.1 km/h 89 % 0 mm
06:17 -12.6 °C -13.5 °C 34669.3 hPa Calm   2.6 km/h 90 % 0 mm
06:22 -12.7 °C -13.6 °C 34669.3 hPa Calm   2.6 km/h 90 % 0 mm
06:32 -12.7 °C -13.5 °C 34682.8 hPa Calm     91 % 0 mm
06:42 -12.6 °C -13.2 °C 34682.8 hPa Calm   7.7 km/h 92 % 0 mm
06:47 -12.6 °C -13.2 °C 34693 hPa Calm   7.7 km/h 92 % 0 mm
06:52 -12.6 °C -13.2 °C 34693 hPa Calm   7.7 km/h 92 % 0 mm
06:57 -12.6 °C -13.2 °C 34693 hPa Calm   7.7 km/h 93 % 0 mm
07:02 -12.7 °C -13.2 °C 34693 hPa Calm   7.7 km/h 94 % 0 mm
07:12 -12.7 °C -13.2 °C 34703.1 hPa SW 2.6 km/h 7.7 km/h 95 % 0 mm
07:17 -12.8 °C -13.2 °C 34703.1 hPa Calm   7.7 km/h 95 % 0 mm
07:22 -12.8 °C -13.2 °C 34703.1 hPa Calm   2.6 km/h 96 % 0 mm
07:27 -12.8 °C -13.2 °C 34703.1 hPa Calm   2.6 km/h 96 % 0 mm
07:32 -12.8 °C -13.2 °C 34703.1 hPa Calm   2.6 km/h 96 % 0 mm
07:37 -12.9 °C -13.2 °C 34703.1 hPa Calm   2.6 km/h 96 % 0 mm
07:42 -12.9 °C -13.2 °C 34703.1 hPa Calm   2.6 km/h 96 % 0 mm
07:47 -12.9 °C -13.2 °C 34703.1 hPa Calm   2.6 km/h 96 % 0 mm
07:52 -12.9 °C -13.2 °C 34703.1 hPa Calm   2.6 km/h 96 % 0 mm
08:02 -13 °C -13.3 °C 34716.7 hPa ENE 10.3 km/h 10.3 km/h 96 % 7.62 mm
08:07 -13.1 °C -13.4 °C 34716.7 hPa SE 2.6 km/h 5.1 km/h 96 % 7.62 mm
08:17 -13.2 °C -13.6 °C 34716.7 hPa NNE 7.7 km/h 12.9 km/h 96 % 7.62 mm
08:22 -13.3 °C -13.6 °C 34716.7 hPa NE 7.7 km/h 12.9 km/h 96 % 7.62 mm
08:27 -13.3 °C -13.7 °C 34716.7 hPa NNE 10.3 km/h 12.9 km/h 96 % 7.62 mm
08:32 -13.4 °C -13.7 °C 34726.8 hPa ENE 2.6 km/h 12.9 km/h 96 % 7.62 mm
08:37 -13.4 °C -13.7 °C 34726.8 hPa East 2.6 km/h 12.9 km/h 96 % 7.62 mm
08:42 -13.4 °C -13.7 °C 34726.8 hPa NE 5.1 km/h 12.9 km/h 96 % 7.62 mm
08:47 -13.4 °C -13.7 °C 34726.8 hPa NNE 2.6 km/h 12.9 km/h 96 % 7.62 mm
08:52 -13.4 °C -13.8 °C 34726.8 hPa ENE 2.6 km/h 12.9 km/h 96 % 7.62 mm
09:02 -13.4 °C -13.8 °C 34726.8 hPa Calm   10.3 km/h 96 % 0 mm
09:07 -13.4 °C -13.8 °C 34740.4 hPa ENE 2.6 km/h 10.3 km/h 96 % 0 mm
09:12 -13.4 °C -13.8 °C 34740.4 hPa NE 2.6 km/h 10.3 km/h 96 % 0 mm
09:17 -13.4 °C -13.7 °C 34740.4 hPa Calm   10.3 km/h 97 % 0 mm
09:22 -13.4 °C -13.7 °C 34740.4 hPa Calm   10.3 km/h 97 % 0 mm
09:27 -13.4 °C -13.6 °C 34740.4 hPa Calm   7.7 km/h 97 % 0 mm
09:32 -13.4 °C -13.7 °C 34740.4 hPa Calm   7.7 km/h 97 % 0 mm
09:37 -13.4 °C -13.7 °C 34740.4 hPa Calm   10.3 km/h 96 % 0 mm
09:42 -13.4 °C -13.8 °C 34750.5 hPa NE 5.1 km/h 10.3 km/h 96 % 0 mm
09:47 -13.4 °C -13.8 °C 34750.5 hPa NNE 5.1 km/h 10.3 km/h 96 % 0 mm
09:52 -13.4 °C -13.7 °C 34750.5 hPa Calm   10.3 km/h 96 % 0 mm
09:57 -13.4 °C -13.7 °C 34750.5 hPa East 2.6 km/h 10.3 km/h 96 % 0 mm
10:02 -13.4 °C -13.7 °C 34750.5 hPa Calm   10.3 km/h 96 % 0 mm
10:12 -13.3 °C -13.7 °C 34750.5 hPa Calm   10.3 km/h 96 % 0 mm
10:17 -13.3 °C -13.7 °C 34750.5 hPa ENE 2.6 km/h 10.3 km/h 96 % 0 mm
10:22 -13.3 °C -13.6 °C 34750.5 hPa NNE 2.6 km/h 10.3 km/h 96 % 0 mm
10:32 -13.3 °C -13.6 °C 34750.5 hPa East 2.6 km/h 12.9 km/h 96 % 0 mm
10:37 -13.3 °C -13.6 °C 34750.5 hPa Calm   10.3 km/h 96 % 0 mm
10:42 -13.3 °C -13.6 °C 34750.5 hPa NE 2.6 km/h 10.3 km/h 96 % 0 mm
10:47 -13.3 °C -13.6 °C 34750.5 hPa Calm   10.3 km/h 96 % 0 mm
10:52 -13.3 °C -13.6 °C 34760.7 hPa Calm   10.3 km/h 96 % 0 mm
10:57 -13.3 °C -13.6 °C 34760.7 hPa NE 2.6 km/h 7.7 km/h 96 % 0 mm
11:02 -13.3 °C -13.6 °C 34760.7 hPa Calm   7.7 km/h 96 % 0 mm
11:07 -13.3 °C -13.6 °C 34774.2 hPa ENE 2.6 km/h 7.7 km/h 96 % 0 mm
11:12 -13.3 °C -13.6 °C 34774.2 hPa Calm   7.7 km/h 96 % 0 mm
11:17 -13.3 °C -13.6 °C 34774.2 hPa NE 2.6 km/h 7.7 km/h 96 % 0 mm
11:22 -13.3 °C -13.6 °C 34774.2 hPa Calm   7.7 km/h 96 % 0 mm
11:27 -13.3 °C -13.6 °C 34774.2 hPa Calm   7.7 km/h 96 % 0 mm
11:32 -13.3 °C -13.7 °C 34774.2 hPa NE 2.6 km/h 7.7 km/h 96 % 0 mm
11:37 -13.3 °C -13.7 °C 34774.2 hPa ENE 5.1 km/h 12.9 km/h 96 % 0 mm
11:42 -13.4 °C -13.7 °C 34774.2 hPa ENE 2.6 km/h 12.9 km/h 96 % 0 mm
11:47 -13.4 °C -13.7 °C 34774.2 hPa NE 10.3 km/h 12.9 km/h 96 % 0 mm
11:52 -13.4 °C -13.8 °C 34774.2 hPa NE 10.3 km/h 12.9 km/h 95 % 0 mm
11:57 -13.4 °C -13.9 °C 34774.2 hPa Calm   12.9 km/h 95 % 0 mm
12:02 -13.5 °C -14 °C 34774.2 hPa NNE 5.1 km/h 12.9 km/h 94 % 0 mm
12:12 -13.5 °C -14 °C 34774.2 hPa Calm   12.9 km/h 94 % 0 mm
12:17 -13.5 °C -14 °C 34774.2 hPa East 5.1 km/h 15.6 km/h 94 % 0 mm
12:27 -13.5 °C -13.9 °C 34774.2 hPa NE 10.3 km/h 15.6 km/h 95 % 0 mm
12:32 -13.5 °C -13.9 °C 34774.2 hPa ESE 2.6 km/h 15.6 km/h 95 % 0 mm
12:37 -13.5 °C -13.9 °C 34774.2 hPa ENE 5.1 km/h 15.6 km/h 95 % 0 mm
12:42 -13.5 °C -13.9 °C 34774.2 hPa East 2.6 km/h 18.2 km/h 95 % 0 mm
12:52 -13.5 °C -13.8 °C 34760.7 hPa East 2.6 km/h 10.3 km/h 96 % 0 mm
12:57 -13.5 °C -13.8 °C 34760.7 hPa ESE 2.6 km/h 12.9 km/h 96 % 0 mm
13:02 -13.6 °C -13.9 °C 34774.2 hPa Calm   12.9 km/h 96 % 0 mm
13:07 -13.6 °C -13.9 °C 34774.2 hPa NE 2.6 km/h 12.9 km/h 96 % 0 mm
13:12 -13.6 °C -13.9 °C 34760.7 hPa Calm   12.9 km/h 96 % 0 mm
13:22 -13.6 °C -13.8 °C 34760.7 hPa SE 2.6 km/h 15.6 km/h 97 % 7.62 mm
13:32 -13.6 °C -13.8 °C 34760.7 hPa NE 2.6 km/h 10.3 km/h 97 % 7.62 mm
13:37 -13.6 °C -13.8 °C 34760.7 hPa Calm   7.7 km/h 97 % 7.62 mm
13:42 -13.6 °C -13.8 °C 34760.7 hPa Calm   7.7 km/h 97 % 7.62 mm
13:47 -13.6 °C -13.8 °C 34760.7 hPa Calm   7.7 km/h 97 % 7.62 mm
13:52 -13.6 °C -13.8 °C 34760.7 hPa ENE 2.6 km/h 7.7 km/h 97 % 7.62 mm
13:57 -13.6 °C -13.8 °C 34760.7 hPa Calm   7.7 km/h 97 % 7.62 mm
14:02 -13.6 °C -13.8 °C 34760.7 hPa NNE 5.1 km/h 7.7 km/h 97 % 7.62 mm
14:07 -13.6 °C -13.8 °C 34760.7 hPa NE 2.6 km/h 7.7 km/h 97 % 12.7 mm
14:12 -13.6 °C -13.8 °C 34760.7 hPa NNE 2.6 km/h 7.7 km/h 97 % 12.7 mm
14:22 -13.6 °C -13.8 °C 34760.7 hPa Calm   10.3 km/h 97 % 7.62 mm
14:27 -13.6 °C -13.8 °C 34750.5 hPa Calm   10.3 km/h 97 % 7.62 mm
14:32 -13.6 °C -13.8 °C 34750.5 hPa NE 2.6 km/h 10.3 km/h 97 % 7.62 mm
14:37 -13.6 °C -13.8 °C 34750.5 hPa ENE 2.6 km/h 15.6 km/h 97 % 12.7 mm
14:42 -13.6 °C -13.8 °C 34750.5 hPa Calm   15.6 km/h 97 % 12.7 mm
14:47 -13.6 °C -13.8 °C 34750.5 hPa Calm   7.7 km/h 97 % 12.7 mm
14:52 -13.5 °C -13.7 °C 34750.5 hPa Calm   7.7 km/h 97 % 12.7 mm
14:57 -13.5 °C -13.7 °C 34750.5 hPa Calm   10.3 km/h 97 % 12.7 mm
15:02 -13.5 °C -13.7 °C 34750.5 hPa Calm   10.3 km/h 97 % 12.7 mm
15:07 -13.5 °C -13.7 °C 34760.7 hPa ENE 2.6 km/h 10.3 km/h 97 % 7.62 mm
15:12 -13.5 °C -13.7 °C 34760.7 hPa Calm   10.3 km/h 97 % 7.62 mm
15:17 -13.5 °C -13.7 °C 34760.7 hPa NE 5.1 km/h 7.7 km/h 97 % 7.62 mm
15:22 -13.5 °C -13.7 °C 34760.7 hPa NNE 5.1 km/h 7.7 km/h 97 % 7.62 mm
15:27 -13.5 °C -13.7 °C 34760.7 hPa ENE 2.6 km/h 10.3 km/h 97 % 12.7 mm
15:32 -13.5 °C -13.7 °C 34760.7 hPa Calm   10.3 km/h 97 % 12.7 mm
15:37 -13.5 °C -13.7 °C 34760.7 hPa ENE 10.3 km/h 10.3 km/h 98 % 12.7 mm
15:42 -13.4 °C -13.6 °C 34760.7 hPa NE 7.7 km/h 10.3 km/h 98 % 12.7 mm
15:47 -13.4 °C -13.7 °C 34760.7 hPa Calm   10.3 km/h 97 % 12.7 mm
15:52 -13.4 °C -13.7 °C 34760.7 hPa NNE 5.1 km/h 10.3 km/h 97 % 12.7 mm
15:57 -13.4 °C -13.7 °C 34760.7 hPa ENE 2.6 km/h 7.7 km/h 97 % 12.7 mm
16:02 -13.4 °C -13.6 °C 34760.7 hPa Calm   7.7 km/h 98 % 12.7 mm
16:07 -13.4 °C -13.6 °C 34760.7 hPa Calm   10.3 km/h 98 % 20.32 mm
16:12 -13.4 °C -13.7 °C 34760.7 hPa Calm   10.3 km/h 97 % 20.32 mm
16:17 -13.4 °C -13.7 °C 34760.7 hPa NE 2.6 km/h 12.9 km/h 97 % 20.32 mm
16:22 -13.4 °C -13.7 °C 34760.7 hPa SE 2.6 km/h 12.9 km/h 97 % 20.32 mm
16:32 -13.4 °C -13.7 °C 34774.2 hPa SE 2.6 km/h 12.9 km/h 97 % 20.32 mm
16:37 -13.4 °C -13.7 °C 34774.2 hPa NE 5.1 km/h 10.3 km/h 97 % 12.7 mm
16:42 -13.4 °C -13.7 °C 34774.2 hPa Calm   10.3 km/h 97 % 12.7 mm
16:47 -13.4 °C -13.7 °C 34784.4 hPa NE 2.6 km/h 10.3 km/h 97 % 12.7 mm
16:52 -13.4 °C -13.6 °C 34784.4 hPa Calm   10.3 km/h 98 % 12.7 mm
16:57 -13.4 °C -13.7 °C 34774.2 hPa Calm   5.1 km/h 97 % 20.32 mm
17:02 -13.4 °C -13.7 °C 34784.4 hPa Calm   5.1 km/h 97 % 20.32 mm
17:12 -13.5 °C -13.7 °C 34784.4 hPa Calm   2.6 km/h 98 % 20.32 mm
17:17 -13.5 °C -13.7 °C 34784.4 hPa Calm   5.1 km/h 97 % 25.4 mm
17:22 -13.5 °C -13.7 °C 34784.4 hPa Calm   5.1 km/h 97 % 25.4 mm
17:32 -13.5 °C -13.7 °C 34784.4 hPa Calm   7.7 km/h 97 % 20.32 mm
17:37 -13.5 °C -13.7 °C 34797.9 hPa Calm   5.1 km/h 98 % 25.4 mm
17:42 -13.6 °C -13.8 °C 34797.9 hPa Calm   5.1 km/h 97 % 25.4 mm
17:47 -13.6 °C -13.8 °C 34797.9 hPa NE 2.6 km/h 7.7 km/h 97 % 12.7 mm
17:52 -13.7 °C -13.9 °C 34797.9 hPa Calm   7.7 km/h 97 % 12.7 mm
17:57 -13.7 °C -13.9 °C 34797.9 hPa NE 7.7 km/h 7.7 km/h 97 % 12.7 mm
18:02 -13.7 °C -13.9 °C 34797.9 hPa NE 5.1 km/h 7.7 km/h 97 % 12.7 mm
18:12 -13.7 °C -13.9 °C 34797.9 hPa East 2.6 km/h 7.7 km/h 97 % 12.7 mm
18:17 -13.7 °C -13.9 °C 34808.1 hPa NE 5.1 km/h 12.9 km/h 97 % 12.7 mm
18:22 -13.8 °C -14 °C 34808.1 hPa ENE 5.1 km/h 10.3 km/h 97 % 12.7 mm
18:27 -13.8 °C -14 °C 34808.1 hPa ENE 5.1 km/h 10.3 km/h 97 % 12.7 mm
18:32 -13.8 °C -14 °C 34808.1 hPa ENE 7.7 km/h 10.3 km/h 97 % 12.7 mm
18:42 -13.8 °C -14 °C 34818.2 hPa ENE 5.1 km/h 15.6 km/h 97 % 12.7 mm
18:52 -13.8 °C -13.9 °C 34818.2 hPa ENE 2.6 km/h 15.6 km/h 98 % 12.7 mm
18:57 -13.8 °C -13.9 °C 34818.2 hPa Calm   12.9 km/h 98 % 7.62 mm
19:02 -13.8 °C -13.9 °C 34818.2 hPa NNE 7.7 km/h 12.9 km/h 98 % 7.62 mm
19:07 -13.8 °C -14 °C 34831.8 hPa ENE 2.6 km/h 10.3 km/h 97 % 7.62 mm
19:12 -13.8 °C -14.1 °C 34831.8 hPa Calm   10.3 km/h 97 % 7.62 mm
19:17 -13.8 °C -14.1 °C 34831.8 hPa NE 2.6 km/h 10.3 km/h 97 % 7.62 mm
19:22 -13.8 °C -14.1 °C 34831.8 hPa NE 2.6 km/h 10.3 km/h 97 % 7.62 mm
19:27 -13.8 °C -14.1 °C 34831.8 hPa NE 5.1 km/h 7.7 km/h 97 % 7.62 mm
19:32 -13.9 °C -14.1 °C 34831.8 hPa Calm   7.7 km/h 97 % 7.62 mm
19:37 -13.9 °C -14.1 °C 34831.8 hPa ENE 2.6 km/h 7.7 km/h 97 % 0 mm
19:42 -13.9 °C -14.1 °C 34831.8 hPa Calm   7.7 km/h 97 % 0 mm
19:47 -13.9 °C -14.1 °C 34841.9 hPa Calm   5.1 km/h 97 % 0 mm
19:52 -13.9 °C -14.1 °C 34831.8 hPa Calm   5.1 km/h 97 % 0 mm
19:57 -13.9 °C -14.2 °C 34831.8 hPa Calm   5.1 km/h 97 % 0 mm
20:02 -13.9 °C -14.2 °C 34831.8 hPa Calm   5.1 km/h 97 % 0 mm
20:07 -13.9 °C -14.2 °C 34831.8 hPa Calm   2.6 km/h 97 % 0 mm
20:12 -13.9 °C -14.2 °C 34831.8 hPa Calm   2.6 km/h 97 % 0 mm
20:17 -13.9 °C -14.2 °C 34831.8 hPa Calm   2.6 km/h 97 % 0 mm
20:22 -13.9 °C -14.2 °C 34831.8 hPa Calm   2.6 km/h 97 % 0 mm
20:27 -13.9 °C -14.1 °C 34841.9 hPa Calm   2.6 km/h 98 % 0 mm
20:32 -13.9 °C -14.1 °C 34841.9 hPa Calm   2.6 km/h 98 % 0 mm
20:37 -13.9 °C -14.1 °C 34841.9 hPa Calm   2.6 km/h 98 % 0 mm
20:42 -13.9 °C -14.1 °C 34841.9 hPa Calm   2.6 km/h 98 % 0 mm
20:47 -13.9 °C -14.1 °C 34841.9 hPa Calm   2.6 km/h 98 % 0 mm
20:52 -14 °C -14.2 °C 34852.1 hPa Calm   2.6 km/h 97 % 0 mm
20:57 -14 °C -14.2 °C 34852.1 hPa Calm   2.6 km/h 97 % 0 mm
21:02 -14.1 °C -14.3 °C 34852.1 hPa Calm   2.6 km/h 97 % 0 mm
21:07 -14.1 °C -14.2 °C 34852.1 hPa Calm   2.6 km/h 98 % 0 mm
21:12 -14.1 °C -14.2 °C 34865.6 hPa Calm   2.6 km/h 98 % 0 mm
21:17 -14 °C -14.2 °C 34865.6 hPa Calm   5.1 km/h 98 % 0 mm
21:27 -14 °C -14.2 °C 34865.6 hPa NE 2.6 km/h 7.7 km/h 97 % 7.62 mm
21:32 -14.1 °C -14.3 °C 34865.6 hPa Calm   7.7 km/h 97 % 7.62 mm
21:37 -14.1 °C -14.3 °C 34865.6 hPa Calm   7.7 km/h 97 % 7.62 mm
21:42 -14.1 °C -14.3 °C 34865.6 hPa Calm   7.7 km/h 97 % 7.62 mm
21:47 -14.1 °C -14.3 °C 34875.8 hPa Calm   7.7 km/h 97 % 7.62 mm
21:52 -14.1 °C -14.3 °C 34875.8 hPa Calm   2.6 km/h 97 % 7.62 mm
21:57 -14.1 °C -14.3 °C 34875.8 hPa NE 2.6 km/h 5.1 km/h 97 % 7.62 mm
22:02 -14.1 °C -14.3 °C 34875.8 hPa NNE 5.1 km/h 5.1 km/h 97 % 7.62 mm
22:07 -14.1 °C -14.3 °C 34875.8 hPa ENE 5.1 km/h 7.7 km/h 97 % 7.62 mm
22:12 -14.1 °C -14.3 °C 34889.3 hPa NE 5.1 km/h 7.7 km/h 97 % 7.62 mm
22:17 -14.1 °C -14.3 °C 34889.3 hPa ENE 2.6 km/h 12.9 km/h 97 % 7.62 mm
22:22 -14.1 °C -14.3 °C 34889.3 hPa ENE 2.6 km/h 12.9 km/h 97 % 7.62 mm
22:27 -14.1 °C -14.3 °C 34889.3 hPa NE 7.7 km/h 12.9 km/h 97 % 0 mm
22:32 -14.1 °C -14.3 °C 34889.3 hPa ENE 5.1 km/h 12.9 km/h 97 % 0 mm
22:37 -14.1 °C -14.3 °C 34889.3 hPa Calm   12.9 km/h 97 % 0 mm
22:42 -14.1 °C -14.3 °C 34889.3 hPa NE 5.1 km/h 12.9 km/h 97 % 0 mm
22:47 -14.1 °C -14.3 °C 34889.3 hPa ENE 2.6 km/h 12.9 km/h 97 % 0 mm
22:52 -14.1 °C -14.3 °C 34889.3 hPa NE 5.1 km/h 12.9 km/h 97 % 0 mm
22:57 -14.2 °C -14.4 °C 34889.3 hPa Calm   10.3 km/h 97 % 0 mm
23:02 -14.2 °C -14.4 °C 34889.3 hPa ENE 2.6 km/h 10.3 km/h 97 % 0 mm
23:07 -14.2 °C -14.4 °C 34899.5 hPa ENE 7.7 km/h 7.7 km/h 97 % 0 mm
23:12 -14.2 °C -14.4 °C 34899.5 hPa East 2.6 km/h 7.7 km/h 97 % 0 mm
23:17 -14.2 °C -14.4 °C 34899.5 hPa ENE 2.6 km/h 7.7 km/h 97 % 0 mm
23:22 -14.2 °C -14.5 °C 34899.5 hPa Calm   7.7 km/h 96 % 0 mm
23:32 -14.2 °C -14.5 °C 34909.7 hPa ENE 7.7 km/h 7.7 km/h 96 % 0 mm
23:37 -14.2 °C -14.5 °C 34909.7 hPa ENE 5.1 km/h 12.9 km/h 96 % 0 mm
23:42 -14.2 °C -14.5 °C 34909.7 hPa NE 2.6 km/h 12.9 km/h 96 % 0 mm
23:47 -14.2 °C -14.5 °C 34909.7 hPa ENE 2.6 km/h 10.3 km/h 96 % 0 mm
23:52 -14.2 °C -14.5 °C 34909.7 hPa NE 2.6 km/h 10.3 km/h 96 % 0 mm
23:57 -14.2 °C -14.6 °C 34909.7 hPa Calm   5.1 km/h 96 % 0 mm
Meteo18
Compliments of Weather Underground - 4 mb

Script developed by  Jim McMurry - jmcmurry@mwt.net Adapted for the template by  Wim van der Kuil - Leuven-Template.eu

You find our weather info also at:

European Weather Network

Weather Underground

Equipment we use:

Weather-station
Davis Vue

Weather-program
Meteobridge

Weather-server
Raspberry PI 2 B+

Provider
1 and 1

Davis Vue

Meteobridge

Raspberry PI 2 B+

1 and 1